createdAt,value
2018-10-03T00:01:10.168Z,102491.73
2018-10-03T00:04:13.691Z,102488.21
2018-10-03T00:07:17.177Z,102482.65
2018-10-03T00:10:20.697Z,102476.54
2018-10-03T00:13:24.278Z,102476.18
2018-10-03T00:16:27.783Z,102473.50
2018-10-03T00:19:31.302Z,102476.93
2018-10-03T00:22:34.864Z,102479.53
2018-10-03T00:25:38.271Z,102486.27
2018-10-03T00:28:41.685Z,102487.18
2018-10-03T00:31:45.099Z,102496.69
2018-10-03T00:34:48.589Z,102488.56
2018-10-03T00:37:52.082Z,102491.13
2018-10-03T00:40:55.595Z,102500.20
2018-10-03T00:43:59.004Z,102489.23
2018-10-03T00:47:02.483Z,102490.07
2018-10-03T00:50:05.954Z,102489.01
2018-10-03T00:53:09.417Z,102503.95
2018-10-03T00:56:12.911Z,102499.20
2018-10-03T00:59:16.420Z,102492.70
2018-10-03T01:02:19.948Z,102493.01
2018-10-03T01:05:23.422Z,102491.98
2018-10-03T01:08:26.905Z,102495.25
2018-10-03T01:11:30.300Z,102493.08
2018-10-03T01:14:33.737Z,102498.09
2018-10-03T01:17:37.305Z,102493.62
2018-10-03T01:20:40.724Z,102487.88
2018-10-03T01:23:44.353Z,102487.14
2018-10-03T01:26:47.820Z,102489.96
2018-10-03T01:29:51.198Z,102475.22
2018-10-03T01:32:54.614Z,102478.89
2018-10-03T01:35:58.016Z,102489.50
2018-10-03T01:39:01.435Z,102483.24
2018-10-03T01:42:04.984Z,102478.70
2018-10-03T01:45:08.482Z,102479.00
2018-10-03T01:48:11.999Z,102471.34
2018-10-03T01:51:15.451Z,102474.41
2018-10-03T01:54:18.920Z,102472.53
2018-10-03T01:57:22.388Z,102480.98
2018-10-03T02:00:25.857Z,102476.88
2018-10-03T02:03:29.327Z,102474.45
2018-10-03T02:06:32.769Z,102468.21
2018-10-03T02:09:36.232Z,102472.97
2018-10-03T02:12:39.643Z,102484.35
2018-10-03T02:15:43.064Z,102489.18
2018-10-03T02:18:46.568Z,102483.79
2018-10-03T02:21:49.948Z,102481.32
2018-10-03T02:24:53.348Z,102481.41
2018-10-03T02:27:56.742Z,102475.92
2018-10-03T02:31:00.157Z,102473.08
2018-10-03T02:34:03.954Z,102485.06
2018-10-03T02:37:07.350Z,102482.29
2018-10-03T02:40:10.430Z,102480.73
2018-10-03T02:43:13.845Z,102480.45
2018-10-03T02:46:17.247Z,102480.73
2018-10-03T02:49:20.650Z,102478.88
2018-10-03T02:52:24.049Z,102482.74
2018-10-03T02:55:27.442Z,102486.29
2018-10-03T02:58:30.853Z,102496.59
2018-10-03T03:01:34.326Z,102491.66
2018-10-03T03:04:37.747Z,102487.72
2018-10-03T03:07:41.163Z,102495.55
2018-10-03T03:10:44.569Z,102496.86
2018-10-03T03:13:47.956Z,102493.81
2018-10-03T03:16:51.420Z,102494.12
2018-10-03T03:19:54.885Z,102494.39
2018-10-03T03:22:58.252Z,102496.82
2018-10-03T03:26:01.628Z,102498.94
2018-10-03T03:29:05.060Z,102485.12
2018-10-03T03:32:08.447Z,102493.73
2018-10-03T03:35:12.152Z,102495.09
2018-10-03T03:38:15.553Z,102494.38
2018-10-03T03:41:18.951Z,102494.23
2018-10-03T03:44:22.364Z,102497.08
2018-10-03T03:47:25.761Z,102506.20
2018-10-03T03:50:29.790Z,102513.80
2018-10-03T03:53:33.178Z,102509.97
2018-10-03T03:56:36.566Z,102513.38
2018-10-03T03:59:40.052Z,102509.38
2018-10-03T04:02:43.474Z,102516.22
2018-10-03T04:05:46.865Z,102517.84
2018-10-03T04:08:50.282Z,102512.71
2018-10-03T04:11:53.686Z,102504.61
2018-10-03T04:14:57.046Z,102510.81
2018-10-03T04:18:00.544Z,102514.72
2018-10-03T04:21:03.999Z,102521.35
2018-10-03T04:24:09.836Z,102523.44
2018-10-03T04:27:13.221Z,102528.06
2018-10-03T04:30:16.646Z,102524.88
2018-10-03T04:33:20.012Z,102528.57
2018-10-03T04:36:23.594Z,102522.40
2018-10-03T04:39:27.036Z,102523.80
2018-10-03T04:42:30.544Z,102531.33
2018-10-03T04:45:34.025Z,102531.45
2018-10-03T04:48:37.636Z,102541.33
2018-10-03T04:51:42.213Z,102546.05
2018-10-03T04:54:45.826Z,102552.39
2018-10-03T04:57:49.276Z,102553.56
2018-10-03T05:00:52.841Z,102559.64
2018-10-03T05:03:56.270Z,102567.17
2018-10-03T05:06:59.789Z,102565.90
2018-10-03T05:10:03.338Z,102574.33
2018-10-03T05:13:06.882Z,102570.16
2018-10-03T05:16:10.397Z,102568.91
2018-10-03T05:19:13.918Z,102572.09
2018-10-03T05:22:17.388Z,102570.48
2018-10-03T05:25:20.907Z,102578.93
2018-10-03T05:28:24.457Z,102577.95
2018-10-03T05:31:27.947Z,102578.27
2018-10-03T05:34:31.417Z,102586.32
2018-10-03T05:37:35.348Z,102586.68
2018-10-03T05:40:38.851Z,102592.99
2018-10-03T05:43:42.321Z,102591.74
2018-10-03T05:46:45.819Z,102598.80
2018-10-03T05:49:49.329Z,102603.35
2018-10-03T05:52:52.844Z,102611.33
2018-10-03T05:55:56.334Z,102609.24
2018-10-03T05:58:59.924Z,102611.75
2018-10-03T06:02:03.613Z,102626.41
2018-10-03T06:05:07.385Z,102626.26
2018-10-03T06:08:10.851Z,102634.57
2018-10-03T06:11:14.368Z,102632.33
2018-10-03T06:14:18.153Z,102637.62
2018-10-03T06:17:21.690Z,102644.60
2018-10-03T06:20:25.176Z,102654.56
2018-10-03T06:23:28.791Z,102661.78
2018-10-03T06:26:32.278Z,102669.82
2018-10-03T06:29:35.917Z,102674.12
2018-10-03T06:32:39.398Z,102680.58
2018-10-03T06:35:42.892Z,102684.63
2018-10-03T06:38:46.470Z,102689.50
2018-10-03T06:41:50.087Z,102693.13
2018-10-03T06:44:54.578Z,102693.02
2018-10-03T06:47:59.667Z,102683.71
2018-10-03T06:51:03.147Z,102682.60
2018-10-03T06:54:06.373Z,102689.73
2018-10-03T06:57:10.105Z,102702.60
2018-10-03T07:00:13.620Z,102705.81
2018-10-03T07:03:17.352Z,102703.99
2018-10-03T07:06:20.797Z,102714.38
2018-10-03T07:09:24.295Z,102718.87
2018-10-03T07:12:27.985Z,102716.67
2018-10-03T07:15:31.522Z,102718.00
2018-10-03T07:18:35.049Z,102718.24
2018-10-03T07:21:39.603Z,102726.35
2018-10-03T07:24:43.107Z,102724.34
2018-10-03T07:27:46.561Z,102733.22
2018-10-03T07:30:50.066Z,102728.09
2018-10-03T07:33:53.527Z,102732.50
2018-10-03T07:36:56.925Z,102725.40
2018-10-03T07:40:00.441Z,102723.43
2018-10-03T07:43:03.838Z,102725.86
2018-10-03T07:46:07.505Z,102721.68
2018-10-03T07:49:10.976Z,102724.75
2018-10-03T07:52:14.438Z,102733.08
2018-10-03T07:55:18.055Z,102738.95
2018-10-03T07:58:21.592Z,102738.87
2018-10-03T08:01:25.108Z,102744.19
2018-10-03T08:04:28.542Z,102744.91
2018-10-03T08:07:32.003Z,102750.88
2018-10-03T08:10:35.587Z,102749.17
2018-10-03T08:13:39.131Z,102754.48
2018-10-03T08:16:42.556Z,102747.61
2018-10-03T08:19:45.963Z,102745.08
2018-10-03T08:22:49.381Z,102745.51
2018-10-03T08:25:52.864Z,102748.87
2018-10-03T08:28:56.294Z,102746.69
2018-10-03T08:31:59.836Z,102748.24
2018-10-03T08:35:03.329Z,102749.54
2018-10-03T08:38:06.783Z,102745.27
2018-10-03T08:41:10.258Z,102746.57
2018-10-03T08:44:13.676Z,102742.08
2018-10-03T08:47:17.076Z,102744.14
2018-10-03T08:50:20.492Z,102744.91
2018-10-03T08:53:24.232Z,102761.43
2018-10-03T08:56:27.742Z,102754.16
2018-10-03T08:59:31.158Z,102760.69
2018-10-03T09:02:34.615Z,102749.67
2018-10-03T09:05:37.968Z,102746.36
2018-10-03T09:08:41.383Z,102748.01
2018-10-03T09:11:44.811Z,102749.22
2018-10-03T09:14:48.264Z,102749.83
2018-10-03T09:17:51.666Z,102752.36
2018-10-03T09:20:55.101Z,102750.60
2018-10-03T09:23:58.489Z,102748.28
2018-10-03T09:27:01.860Z,102750.53
2018-10-03T09:30:05.464Z,102755.25
2018-10-03T09:33:09.208Z,102768.70
2018-10-03T09:36:12.819Z,102776.17
2018-10-03T09:39:16.175Z,102768.50
2018-10-03T09:42:19.975Z,102767.90
2018-10-03T09:45:23.403Z,102774.52
2018-10-03T09:48:26.797Z,102778.99
2018-10-03T09:51:30.191Z,102772.29
2018-10-03T09:54:33.591Z,102765.01
2018-10-03T09:57:37.067Z,102772.90
2018-10-03T10:00:45.817Z,102775.03
2018-10-03T10:03:49.218Z,102774.62
2018-10-03T10:06:53.716Z,102772.61
2018-10-03T10:09:57.192Z,102770.97
2018-10-03T10:13:00.689Z,102774.83
2018-10-03T10:16:04.086Z,102767.21
2018-10-03T10:19:07.526Z,102767.06
2018-10-03T10:22:11.108Z,102763.06
2018-10-03T10:25:14.494Z,102773.44
2018-10-03T10:28:17.860Z,102768.83
2018-10-03T10:31:21.295Z,102776.02
2018-10-03T10:34:24.664Z,102777.89
2018-10-03T10:37:28.057Z,102780.09
2018-10-03T10:40:31.764Z,102782.23
2018-10-03T10:43:35.273Z,102784.84
2018-10-03T10:46:38.840Z,102788.84
2018-10-03T10:49:42.374Z,102781.91
2018-10-03T10:52:46.102Z,102786.50
2018-10-03T10:55:49.703Z,102787.17
2018-10-03T10:58:53.295Z,102782.63
2018-10-03T11:01:56.930Z,102785.54
2018-10-03T11:05:00.402Z,102783.38
2018-10-03T11:08:04.015Z,102783.68
2018-10-03T11:11:07.576Z,102787.34
2018-10-03T11:14:11.116Z,102786.44
2018-10-03T11:17:14.738Z,102783.82
2018-10-03T11:20:18.225Z,102786.36
2018-10-03T11:23:21.745Z,102786.39
2018-10-03T11:26:25.214Z,102783.94
2018-10-03T11:29:28.838Z,102783.52
2018-10-03T11:32:32.560Z,102781.11
2018-10-03T11:35:36.042Z,102784.87
2018-10-03T11:38:39.624Z,102782.57
2018-10-03T11:41:43.255Z,102781.69
2018-10-03T11:44:46.840Z,102777.97
2018-10-03T11:47:50.351Z,102765.35
2018-10-03T11:50:53.860Z,102764.92
2018-10-03T11:53:57.400Z,102760.87
2018-10-03T11:57:02.055Z,102757.99
2018-10-03T12:00:05.675Z,102759.25
2018-10-03T12:03:09.347Z,102768.65
2018-10-03T12:06:13.159Z,102748.41
2018-10-03T12:09:16.708Z,102755.04
2018-10-03T12:12:20.217Z,102758.17
2018-10-03T12:15:23.722Z,102761.41
2018-10-03T12:18:27.212Z,102755.94
2018-10-03T12:21:31.055Z,102757.73
2018-10-03T12:24:34.724Z,102756.58
2018-10-03T12:27:38.444Z,102759.21
2018-10-03T12:30:41.959Z,102754.52
2018-10-03T12:33:45.553Z,102752.85
2018-10-03T12:36:48.940Z,102748.79
2018-10-03T12:39:52.477Z,102752.42
2018-10-03T12:42:55.953Z,102754.10
2018-10-03T12:45:59.486Z,102747.20
2018-10-03T12:49:02.961Z,102748.89
2018-10-03T12:52:07.306Z,102746.18
2018-10-03T12:55:11.002Z,102749.95
2018-10-03T12:58:14.702Z,102750.31
2018-10-03T13:01:18.286Z,102742.72
2018-10-03T13:04:21.698Z,102745.97
2018-10-03T13:07:25.225Z,102747.44
2018-10-03T13:10:29.451Z,102738.25
2018-10-03T13:13:32.952Z,102735.00
2018-10-03T13:16:36.604Z,102728.78
2018-10-03T13:19:40.044Z,102723.66
2018-10-03T13:22:43.863Z,102725.17
2018-10-03T13:25:47.506Z,102725.99
2018-10-03T13:28:50.941Z,102729.76
2018-10-03T13:31:54.371Z,102722.18
2018-10-03T13:34:57.948Z,102727.19
2018-10-03T13:38:01.403Z,102723.25
2018-10-03T13:41:05.001Z,102721.24
2018-10-03T13:44:08.628Z,102717.14
2018-10-03T13:47:12.094Z,102718.53
2018-10-03T13:50:15.582Z,102714.82
2018-10-03T13:53:19.127Z,102711.20
2018-10-03T13:56:22.669Z,102704.98
2018-10-03T13:59:26.165Z,102708.48
2018-10-03T14:02:29.604Z,102706.12
2018-10-03T14:05:33.239Z,102699.67
2018-10-03T14:08:36.776Z,102707.73
2018-10-03T14:11:40.427Z,102709.85
2018-10-03T14:15:47.133Z,102714.12
2018-10-03T14:18:50.593Z,102715.86
2018-10-03T14:21:54.572Z,102714.09
2018-10-03T14:24:58.077Z,102716.92
2018-10-03T14:28:01.504Z,102721.22
2018-10-03T14:31:04.974Z,102721.25
2018-10-03T14:34:08.441Z,102718.25
2018-10-03T14:37:11.931Z,102725.05
2018-10-03T14:40:16.387Z,102725.89
2018-10-03T14:43:19.921Z,102730.29
2018-10-03T14:46:23.403Z,102724.34
2018-10-03T14:49:26.822Z,102724.01
2018-10-03T14:52:30.312Z,102730.19
2018-10-03T14:55:33.802Z,102729.21
2018-10-03T14:58:37.561Z,102731.80
2018-10-03T15:01:40.993Z,102728.06
2018-10-03T15:04:44.349Z,102734.71
2018-10-03T15:07:47.861Z,102733.00
2018-10-03T15:10:51.281Z,102729.69
2018-10-03T15:13:54.779Z,102729.54
2018-10-03T15:16:58.168Z,102721.97
2018-10-03T15:20:01.722Z,102724.27
2018-10-03T15:23:05.212Z,102723.33
2018-10-03T15:26:08.958Z,102729.04
2018-10-03T15:29:12.437Z,102726.40
2018-10-03T15:32:15.957Z,102733.76
2018-10-03T15:35:19.462Z,102732.44
2018-10-03T15:38:22.912Z,102727.79
2018-10-03T15:41:26.466Z,102733.29
2018-10-03T15:44:30.054Z,102731.74
2018-10-03T15:47:33.548Z,102739.88
2018-10-03T15:50:37.235Z,102741.86
2018-10-03T15:53:40.754Z,102749.99
2018-10-03T15:56:45.302Z,102753.07
2018-10-03T15:59:48.806Z,102757.38
2018-10-03T16:02:52.358Z,102758.88
2018-10-03T16:05:56.633Z,102765.69
2018-10-03T16:09:00.201Z,102766.20
2018-10-03T16:12:04.269Z,102770.50
2018-10-03T16:15:08.115Z,102774.07
2018-10-03T16:18:12.771Z,102771.76
2018-10-03T16:21:16.365Z,102782.10
2018-10-03T16:24:20.023Z,102786.15
2018-10-03T16:27:24.056Z,102783.25
2018-10-03T16:30:27.737Z,102788.87
2018-10-03T16:33:31.343Z,102790.93
2018-10-03T16:36:35.076Z,102798.25
2018-10-03T16:39:39.475Z,102802.25
2018-10-03T16:42:43.119Z,102803.91
2018-10-03T16:45:46.727Z,102804.25
2018-10-03T16:48:50.354Z,102804.69
2018-10-03T16:51:53.843Z,102805.91
2018-10-03T16:54:57.693Z,102810.46
2018-10-03T16:58:01.313Z,102813.29
2018-10-03T17:01:04.888Z,102819.65
2018-10-03T17:04:09.425Z,102824.99
2018-10-03T17:07:12.952Z,102828.49
2018-10-03T17:10:16.434Z,102827.14
2018-10-03T17:13:19.995Z,102833.15
2018-10-03T17:16:23.615Z,102834.74
2018-10-03T17:19:27.160Z,102842.44
2018-10-03T17:22:30.640Z,102848.21
2018-10-03T17:25:34.159Z,102850.88
2018-10-03T17:28:37.632Z,102853.98
2018-10-03T17:31:42.253Z,102862.37
2018-10-03T17:34:45.760Z,102871.18
2018-10-03T17:37:49.362Z,102878.88
2018-10-03T17:40:52.785Z,102882.73
2018-10-03T17:43:56.571Z,102883.30
2018-10-03T17:47:00.063Z,102885.90
2018-10-03T17:50:03.596Z,102884.08
2018-10-03T17:53:07.226Z,102886.68
2018-10-03T17:56:10.684Z,102895.42
2018-10-03T17:59:14.185Z,102901.20
2018-10-03T18:02:17.593Z,102899.83
2018-10-03T18:05:21.096Z,102900.32
2018-10-03T18:08:24.495Z,102908.50
2018-10-03T18:11:28.000Z,102909.92
2018-10-03T18:14:31.553Z,102915.00
2018-10-03T18:17:35.162Z,102921.80
2018-10-03T18:20:38.739Z,102929.67
2018-10-03T18:23:42.337Z,102931.59
2018-10-03T18:26:45.876Z,102936.30
2018-10-03T18:29:49.323Z,102940.96
2018-10-03T18:32:52.920Z,102945.78
2018-10-03T18:35:56.457Z,102948.22
2018-10-03T18:38:59.961Z,102953.65
2018-10-03T18:42:03.529Z,102947.99
2018-10-03T18:45:07.118Z,102951.29
2018-10-03T18:48:10.577Z,102955.36
2018-10-03T18:51:14.084Z,102955.40
2018-10-03T18:54:17.623Z,102957.62
2018-10-03T18:57:21.090Z,102963.80
2018-10-03T19:00:24.548Z,102965.72
2018-10-03T19:03:27.948Z,102974.99
2018-10-03T19:06:31.456Z,102980.22
2018-10-03T19:09:34.950Z,102988.27
2018-10-03T19:12:38.965Z,102987.48
2018-10-03T19:15:42.419Z,102989.00
2018-10-03T19:18:46.823Z,102990.10
2018-10-03T19:21:50.313Z,102997.36
2018-10-03T19:24:53.832Z,102999.41
2018-10-03T19:27:57.567Z,102998.95
2018-10-03T19:31:01.149Z,103000.69
2018-10-03T19:34:04.710Z,103005.98
2018-10-03T19:37:08.137Z,103008.43
2018-10-03T19:40:11.717Z,103008.76
2018-10-03T19:43:15.137Z,103009.31
2018-10-03T19:46:18.528Z,103009.20
2018-10-03T19:49:21.926Z,103012.91
2018-10-03T19:52:25.447Z,103014.92
2018-10-03T19:55:28.937Z,103017.73
2018-10-03T19:58:32.772Z,103017.65
2018-10-03T20:01:36.353Z,103026.67
2018-10-03T20:04:39.838Z,103025.39
2018-10-03T20:07:43.374Z,103027.44
2018-10-03T20:10:46.933Z,103028.43
2018-10-03T20:13:50.368Z,103030.28
2018-10-03T20:16:53.765Z,103033.16
2018-10-03T20:19:57.315Z,103033.90
2018-10-03T20:23:00.805Z,103040.93
2018-10-03T20:26:04.309Z,103036.74
2018-10-03T20:29:07.799Z,103040.69
2018-10-03T20:32:11.343Z,103043.38
2018-10-03T20:35:14.762Z,103046.28
2018-10-03T20:38:18.147Z,103047.93
2018-10-03T20:41:21.630Z,103051.80
2018-10-03T20:44:25.176Z,103048.58
2018-10-03T20:47:28.570Z,103048.47
2018-10-03T20:50:32.046Z,103049.58
2018-10-03T20:53:35.559Z,103056.66
2018-10-03T20:56:39.205Z,103054.27
2018-10-03T20:59:42.581Z,103054.61
2018-10-03T21:02:46.315Z,103055.12
2018-10-03T21:05:49.744Z,103054.40
2018-10-03T21:08:53.300Z,103056.45
2018-10-03T21:11:56.595Z,103047.48
2018-10-03T21:14:59.964Z,103054.40
2018-10-03T21:18:03.480Z,103052.28
2018-10-03T21:21:07.031Z,103055.53
2018-10-03T21:24:10.515Z,103051.81
2018-10-03T21:27:13.981Z,103055.96
2018-10-03T21:30:17.512Z,103058.74
2018-10-03T21:33:20.941Z,103050.04
2018-10-03T21:36:24.384Z,103050.07
2018-10-03T21:39:27.892Z,103047.98
2018-10-03T21:42:31.455Z,103050.58
2018-10-03T21:45:34.987Z,103046.47
2018-10-03T21:48:38.562Z,103051.25
2018-10-03T21:51:42.007Z,103047.83
2018-10-03T21:54:45.493Z,103051.66
2018-10-03T21:57:49.037Z,103056.10
2018-10-03T22:00:52.586Z,103058.65
2018-10-03T22:03:56.120Z,103057.94
2018-10-03T22:06:59.618Z,103053.39
2018-10-03T22:10:03.189Z,103061.73
2018-10-03T22:13:07.035Z,103062.28
2018-10-03T22:16:10.543Z,103065.98
2018-10-03T22:19:14.096Z,103063.40
2018-10-03T22:22:17.534Z,103058.45
2018-10-03T22:25:21.046Z,103058.98
2018-10-03T22:28:25.942Z,103054.91
2018-10-03T22:31:29.461Z,103045.92
2018-10-03T22:34:33.035Z,103047.14
2018-10-03T22:37:36.697Z,103043.02
2018-10-03T22:40:40.192Z,103045.57
2018-10-03T22:43:43.774Z,103044.77
2018-10-03T22:46:47.318Z,103045.73
2018-10-03T22:49:50.820Z,103048.70
2018-10-03T22:52:55.422Z,103048.39
2018-10-03T22:55:59.001Z,103056.73
2018-10-03T22:59:02.434Z,103053.67
2018-10-03T23:02:05.953Z,103057.31
2018-10-03T23:05:09.462Z,103058.78
2018-10-03T23:08:12.979Z,103059.38
2018-10-03T23:11:16.465Z,103061.60
2018-10-03T23:14:20.073Z,103061.07
2018-10-03T23:17:23.534Z,103064.72
2018-10-03T23:20:26.955Z,103070.71
2018-10-03T23:23:30.443Z,103067.75
2018-10-03T23:26:33.862Z,103065.70
2018-10-03T23:29:37.360Z,103063.39
2018-10-03T23:32:40.890Z,103071.69
2018-10-03T23:35:44.622Z,103078.25
2018-10-03T23:38:48.055Z,103084.61
2018-10-03T23:41:51.535Z,103084.97
2018-10-03T23:44:54.955Z,103088.70
2018-10-03T23:47:58.361Z,103089.21
2018-10-03T23:51:01.859Z,103089.80
2018-10-03T23:54:05.262Z,103095.23
2018-10-03T23:57:08.661Z,103090.05
